createdAt,value
2017-10-10T18:40:11.620Z,15.7
2017-10-10T18:41:13.142Z,15.8
2017-10-10T18:42:34.638Z,15.7
2017-10-10T18:43:36.026Z,15.7
2017-10-10T18:44:58.532Z,15.6
2017-10-10T18:45:59.918Z,15.8
2017-10-10T18:47:01.307Z,15.7
2017-10-10T18:48:02.698Z,15.8
2017-10-10T18:49:04.093Z,15.7
2017-10-10T18:50:05.477Z,15.8
2017-10-10T18:51:06.867Z,15.7
2017-10-10T18:52:08.259Z,15.8
2017-10-10T18:53:09.650Z,15.8
2017-10-10T18:54:11.039Z,15.7
2017-10-10T18:55:12.426Z,15.7
2017-10-10T18:56:13.814Z,15.7
2017-10-10T18:57:15.283Z,15.7
2017-10-10T18:58:16.778Z,15.7
2017-10-10T18:59:18.161Z,15.7
2017-10-10T19:00:19.549Z,15.7
2017-10-10T19:01:20.934Z,15.7
2017-10-10T19:02:22.320Z,15.7
2017-10-10T19:03:23.712Z,15.8
2017-10-10T19:04:25.181Z,15.8
2017-10-10T19:05:26.604Z,15.7
2017-10-10T19:06:28.059Z,15.7
2017-10-10T19:07:29.445Z,15.7
2017-10-10T19:08:30.835Z,15.8
2017-10-10T19:09:32.222Z,15.7
2017-10-10T19:10:33.619Z,15.7
2017-10-10T19:11:35.005Z,15.7
2017-10-10T19:12:36.395Z,15.7
2017-10-10T19:13:37.872Z,15.7
2017-10-10T19:14:39.299Z,15.7
2017-10-10T19:15:40.686Z,15.8
2017-10-10T19:16:42.099Z,15.7
2017-10-10T19:17:43.469Z,15.7
2017-10-10T19:18:44.855Z,15.8
2017-10-10T19:19:46.248Z,15.7
2017-10-10T19:20:47.739Z,15.7
2017-10-10T19:21:49.112Z,15.7
2017-10-10T19:22:50.573Z,15.6
2017-10-10T19:23:52.089Z,15.7
2017-10-10T19:24:53.481Z,15.7
2017-10-10T19:25:54.870Z,15.7
2017-10-10T19:26:56.262Z,15.7
2017-10-10T19:27:57.655Z,15.7
2017-10-10T19:28:59.043Z,15.7
2017-10-10T19:30:00.435Z,15.6
2017-10-10T19:31:01.817Z,15.7
2017-10-10T19:32:03.208Z,15.7
2017-10-10T19:33:04.599Z,15.6
2017-10-10T19:34:06.051Z,15.6
2017-10-10T19:35:07.440Z,15.6
2017-10-10T19:36:08.825Z,15.6
2017-10-10T19:37:10.212Z,15.6
2017-10-10T19:38:11.718Z,15.6
2017-10-10T19:39:13.149Z,15.6
2017-10-10T19:40:14.537Z,15.6
2017-10-10T19:41:15.928Z,15.7
2017-10-10T19:42:17.320Z,15.6
2017-10-10T19:43:18.707Z,15.5
2017-10-10T19:44:20.190Z,15.6
2017-10-10T19:45:21.826Z,15.6
2017-10-10T19:46:23.254Z,15.6
2017-10-10T19:47:24.642Z,15.6
2017-10-10T19:48:26.037Z,15.6
2017-10-10T19:49:27.429Z,15.6
2017-10-10T19:50:28.836Z,15.7
2017-10-10T19:51:30.227Z,15.7
2017-10-10T19:52:31.630Z,15.6
2017-10-10T19:53:33.040Z,15.7
2017-10-10T19:54:34.431Z,15.6
2017-10-10T19:55:35.860Z,15.7
2017-10-10T19:56:37.639Z,15.5
2017-10-10T19:57:39.201Z,15.6
2017-10-10T19:58:40.592Z,15.6
2017-10-10T19:59:42.205Z,15.6
2017-10-10T20:00:43.595Z,15.6
2017-10-10T20:01:44.992Z,15.6
2017-10-10T20:02:46.508Z,15.5
2017-10-10T20:03:48.163Z,15.6
2017-10-10T20:04:49.649Z,15.7
2017-10-10T20:05:51.229Z,15.6
2017-10-10T20:06:52.588Z,15.6
2017-10-10T20:07:54.727Z,15.6
2017-10-10T20:08:56.165Z,15.6
2017-10-10T20:09:57.670Z,15.7
2017-10-10T20:10:59.066Z,15.6
2017-10-10T20:12:00.454Z,15.6
2017-10-10T20:13:01.845Z,15.5
2017-10-10T20:14:03.278Z,15.6
2017-10-10T20:15:04.677Z,15.5
2017-10-10T20:16:06.064Z,15.5
2017-10-10T20:17:07.464Z,15.6
2017-10-10T20:18:08.853Z,15.6
2017-10-10T20:19:10.233Z,15.6
2017-10-10T20:20:11.728Z,15.5
2017-10-10T20:21:13.097Z,15.7
2017-10-10T20:22:14.485Z,15.5
2017-10-10T20:23:15.874Z,15.6
2017-10-10T20:24:17.267Z,15.6
2017-10-10T20:25:18.651Z,15.6
2017-10-10T20:26:20.036Z,15.5
2017-10-10T20:27:21.427Z,15.6
2017-10-10T20:28:22.823Z,15.5
2017-10-10T20:29:24.205Z,15.6
2017-10-10T20:30:25.594Z,15.5
2017-10-10T20:31:26.982Z,15.5
2017-10-10T20:32:28.376Z,15.5
2017-10-10T20:33:29.760Z,15.6
2017-10-10T20:34:31.164Z,15.6
2017-10-10T20:35:32.557Z,15.5
2017-10-10T20:36:33.956Z,15.6
2017-10-10T20:37:35.341Z,15.5
2017-10-10T20:38:36.733Z,15.5
2017-10-10T20:39:38.127Z,15.5
2017-10-10T20:40:39.515Z,15.5
2017-10-10T20:41:40.901Z,15.5
2017-10-10T20:42:42.290Z,15.5
2017-10-10T20:43:43.679Z,15.5
2017-10-10T20:44:45.071Z,15.5
2017-10-10T20:45:46.463Z,15.5
2017-10-10T20:46:47.869Z,15.4
2017-10-10T20:47:49.255Z,15.4
2017-10-10T20:48:50.644Z,15.4
2017-10-10T20:49:52.032Z,15.4
2017-10-10T20:50:53.421Z,15.4
2017-10-10T20:51:54.830Z,15.3
2017-10-10T20:52:56.250Z,15.4
2017-10-10T20:53:57.661Z,15.4
2017-10-10T20:54:59.027Z,15.5
2017-10-10T20:56:00.423Z,15.4
2017-10-10T20:57:01.807Z,15.3
2017-10-10T20:58:03.197Z,15.3
2017-10-10T20:59:04.587Z,15.3
2017-10-10T21:00:05.978Z,15.3
2017-10-10T21:01:09.251Z,15.3
2017-10-10T21:02:10.637Z,15.3
2017-10-10T21:03:12.028Z,15.1
2017-10-10T21:04:13.418Z,15.2
2017-10-10T21:05:14.807Z,15.2
2017-10-10T21:06:16.198Z,15.2
2017-10-10T21:07:17.589Z,15.2
2017-10-10T21:08:19.022Z,15.2
2017-10-10T21:09:20.417Z,15.2
2017-10-10T21:10:21.803Z,15.2
2017-10-10T21:11:23.193Z,15.2
2017-10-10T21:12:24.585Z,15.2
2017-10-10T21:13:25.971Z,15.2
2017-10-10T21:14:27.363Z,15.2
2017-10-10T21:15:28.751Z,15.1
2017-10-10T21:16:30.136Z,15.2
2017-10-10T21:17:31.524Z,15.2
2017-10-10T21:18:32.914Z,15.2
2017-10-10T21:19:34.303Z,15.2
2017-10-10T21:20:35.692Z,15.2
2017-10-10T21:21:37.081Z,15.2
2017-10-10T21:22:38.469Z,15.2
2017-10-10T21:23:39.854Z,15.2
2017-10-10T21:24:41.246Z,15.1
2017-10-10T21:25:42.634Z,15.1
2017-10-10T21:26:44.022Z,15.1
2017-10-10T21:27:45.412Z,15.1
2017-10-10T21:28:46.800Z,15.1
2017-10-10T21:29:48.189Z,15.2
2017-10-10T21:30:49.577Z,15.1
2017-10-10T21:31:50.966Z,15.1
2017-10-10T21:32:52.354Z,15.1
2017-10-10T21:33:53.741Z,15.1
2017-10-10T21:34:55.130Z,15.1
2017-10-10T21:35:56.528Z,15.1
2017-10-10T21:36:57.915Z,15.0
2017-10-10T21:37:59.299Z,15.1
2017-10-10T21:39:00.689Z,15.0
2017-10-10T21:40:02.078Z,15.0
2017-10-10T21:41:03.470Z,14.9
2017-10-10T21:42:04.859Z,15.0
2017-10-10T21:43:06.250Z,15.0
2017-10-10T21:44:07.640Z,14.9
2017-10-10T21:45:09.025Z,14.9
2017-10-10T21:46:10.416Z,14.9
2017-10-10T21:47:11.807Z,14.9
2017-10-10T21:48:13.194Z,14.9
2017-10-10T21:49:14.582Z,14.8
2017-10-10T21:50:15.978Z,14.8
2017-10-10T21:51:17.360Z,14.8
2017-10-10T21:52:18.746Z,14.8
2017-10-10T21:53:20.133Z,14.9
2017-10-10T21:54:21.530Z,14.8
2017-10-10T21:55:22.910Z,14.8
2017-10-10T21:56:24.301Z,14.8
2017-10-10T21:57:25.690Z,14.8
2017-10-10T21:58:27.081Z,14.8
2017-10-10T21:59:28.469Z,14.8
2017-10-10T22:00:29.861Z,14.8
2017-10-10T22:01:31.248Z,14.9
2017-10-10T22:02:32.639Z,14.8
2017-10-10T22:03:34.032Z,14.8
2017-10-10T22:04:35.420Z,14.8
2017-10-10T22:05:36.810Z,14.8
2017-10-10T22:06:38.198Z,14.8
2017-10-10T22:07:39.587Z,14.8
2017-10-10T22:08:40.976Z,14.8
2017-10-10T22:09:42.366Z,14.9
2017-10-10T22:10:43.755Z,14.8
2017-10-10T22:11:45.144Z,14.8
2017-10-10T22:12:46.537Z,14.9
2017-10-10T22:13:47.922Z,14.9
2017-10-10T22:14:49.312Z,14.9
2017-10-10T22:15:50.700Z,15.0
2017-10-10T22:16:52.089Z,15.0
2017-10-10T22:17:53.479Z,14.9
2017-10-10T22:18:54.867Z,15.0
2017-10-10T22:19:56.261Z,15.0
2017-10-10T22:20:57.647Z,15.0
2017-10-10T22:21:59.033Z,15.0
2017-10-10T22:23:00.424Z,15.0
2017-10-10T22:24:01.811Z,15.1
2017-10-10T22:25:03.203Z,15.0
2017-10-10T22:26:04.592Z,15.0
2017-10-10T22:27:05.983Z,15.1
2017-10-10T22:28:07.371Z,15.0
2017-10-10T22:29:08.765Z,15.1
2017-10-10T22:30:10.156Z,15.0
2017-10-10T22:31:11.540Z,15.1
2017-10-10T22:32:12.929Z,15.1
2017-10-10T22:33:14.322Z,15.1
2017-10-10T22:34:15.715Z,15.0
2017-10-10T22:35:17.098Z,15.1
2017-10-10T22:36:18.484Z,15.1
2017-10-10T22:37:19.872Z,15.0
2017-10-10T22:38:21.263Z,15.0
2017-10-10T22:39:22.648Z,15.0
2017-10-10T22:40:24.041Z,15.0
2017-10-10T22:41:25.431Z,15.0
2017-10-10T22:42:26.816Z,15.0
2017-10-10T22:43:28.206Z,15.0
2017-10-10T22:44:29.591Z,15.0
2017-10-10T22:45:30.984Z,14.9
2017-10-10T22:46:32.371Z,14.9
2017-10-10T22:47:33.761Z,15.0
2017-10-10T22:48:35.153Z,14.9
2017-10-10T22:49:36.539Z,14.9
2017-10-10T22:50:37.929Z,14.8
2017-10-10T22:51:39.316Z,14.9
2017-10-10T22:52:40.705Z,14.9
2017-10-10T22:53:42.092Z,14.9
2017-10-10T22:54:43.482Z,14.8
2017-10-10T22:55:44.876Z,14.8
2017-10-10T22:56:46.260Z,14.8
2017-10-10T22:57:47.648Z,14.8
2017-10-10T22:58:49.038Z,14.8
2017-10-10T22:59:50.436Z,14.9
2017-10-10T23:00:51.816Z,14.8
2017-10-10T23:01:53.206Z,14.8
2017-10-10T23:02:54.595Z,14.8
2017-10-10T23:03:55.984Z,14.9
2017-10-10T23:04:57.372Z,14.8
2017-10-10T23:05:58.761Z,14.8
2017-10-10T23:07:00.153Z,14.8
2017-10-10T23:08:01.544Z,14.8
2017-10-10T23:09:02.934Z,14.8
2017-10-10T23:10:04.327Z,14.9
2017-10-10T23:11:05.717Z,14.8
2017-10-10T23:12:07.105Z,14.8
2017-10-10T23:13:08.490Z,14.8
2017-10-10T23:14:09.880Z,14.9
2017-10-10T23:15:11.270Z,15.0
2017-10-10T23:16:12.661Z,14.9
2017-10-10T23:17:14.053Z,14.9
2017-10-10T23:18:15.439Z,14.9
2017-10-10T23:19:16.828Z,14.9
2017-10-10T23:20:18.218Z,14.9
2017-10-10T23:21:19.607Z,15.0
2017-10-10T23:22:20.995Z,15.0
2017-10-10T23:23:22.384Z,15.0
2017-10-10T23:24:23.776Z,15.0
2017-10-10T23:25:25.161Z,15.0
2017-10-10T23:26:26.552Z,15.0
2017-10-10T23:27:27.940Z,15.0
2017-10-10T23:28:29.329Z,15.1
2017-10-10T23:29:30.722Z,15.1
2017-10-10T23:30:32.111Z,15.0
2017-10-10T23:31:33.500Z,15.1
2017-10-10T23:32:34.891Z,15.1
2017-10-10T23:33:36.278Z,15.1
2017-10-10T23:34:37.665Z,15.2
2017-10-10T23:35:39.055Z,15.1
2017-10-10T23:36:40.447Z,15.1
2017-10-10T23:37:41.837Z,15.1
2017-10-10T23:38:43.228Z,15.2
2017-10-10T23:39:44.617Z,15.2
2017-10-10T23:40:46.005Z,15.2
2017-10-10T23:41:47.394Z,15.2
2017-10-10T23:42:48.782Z,15.1
2017-10-10T23:43:50.171Z,15.1
2017-10-10T23:44:51.565Z,15.1
2017-10-10T23:45:52.953Z,15.1
2017-10-10T23:46:54.340Z,15.2
2017-10-10T23:47:55.729Z,15.2
2017-10-10T23:48:57.115Z,15.1
2017-10-10T23:49:58.506Z,15.2
2017-10-10T23:50:59.894Z,15.1
2017-10-10T23:52:01.284Z,15.2
2017-10-10T23:53:02.674Z,15.1
2017-10-10T23:54:04.061Z,15.1
2017-10-10T23:55:05.450Z,15.1
2017-10-10T23:56:06.838Z,15.1
2017-10-10T23:57:08.232Z,15.1
2017-10-10T23:58:09.617Z,15.1
2017-10-10T23:59:11.009Z,15.1
